Time;durP1;ratioP1;P1;durP2;ratioP2;P2;SDS_P1;SDS_P2;PMS_P1;PMS_P2;Temp;Humidity;BMP_temperature;BMP_pressure;BME280_temperature;BME280_humidity;BME280_pressure;Samples;Min_cycle;Max_cycle;Signal;HPM_P1;HPM_P2
2021/12/13 00:09:56;;;;;;;95.77;29.70;;;;;;;-0.70;100.00;101404.47;20821097;28;20250;-62
2021/12/13 00:20:07;;;;;;;98.77;28.27;;;;;;;-0.72;100.00;101401.88;20821425;28;20239;-63
2021/12/13 00:30:44;;;;;;;117.97;29.63;;;;;;;-0.72;100.00;101403.59;20821076;28;20285;-64
2021/12/13 00:40:51;;;;;;;112.40;29.60;;;;;;;-0.74;100.00;101408.00;20820449;28;20223;-64
2021/12/13 00:51:20;;;;;;;115.47;28.87;;;;;;;-0.67;100.00;101398.38;20820524;28;20251;-64
2021/12/13 01:01:24;;;;;;;113.37;29.73;;;;;;;-0.66;100.00;101410.59;20818544;28;20318;-64
2021/12/13 01:11:54;;;;;;;107.73;28.50;;;;;;;-0.64;100.00;101414.97;20774036;28;20678;-64
2021/12/13 01:22:20;;;;;;;83.27;23.30;;;;;;;-0.59;100.00;101413.22;20808280;28;20324;-65
2021/12/13 01:32:25;;;;;;;97.33;27.67;;;;;;;-0.61;100.00;101430.72;20765416;28;20220;-65
2021/12/13 01:42:30;;;;;;;118.93;31.73;;;;;;;-0.67;100.00;101430.69;20833076;28;20248;-64
2021/12/13 01:52:36;;;;;;;107.00;31.40;;;;;;;-0.93;100.00;101417.59;20832954;28;20243;-64
2021/12/13 02:02:48;;;;;;;107.87;33.23;;;;;;;-1.04;100.00;101398.38;20832074;28;20231;-63
2021/12/13 02:12:57;;;;;;;122.23;32.87;;;;;;;-1.28;100.00;101396.63;20831151;28;20224;-64
2021/12/13 02:23:01;;;;;;;102.23;32.73;;;;;;;-1.46;100.00;101392.25;20844993;28;20316;-63
2021/12/13 02:33:08;;;;;;;84.17;29.13;;;;;;;-1.44;100.00;101397.47;20793431;28;20673;-64
2021/12/13 02:43:16;;;;;;;83.03;29.27;;;;;;;-1.43;100.00;101403.56;20826796;28;20228;-63
2021/12/13 02:53:25;;;;;;;72.27;24.93;;;;;;;-1.35;100.00;101402.75;20763146;28;20382;-64
2021/12/13 03:03:32;;;;;;;76.57;25.37;;;;;;;-1.15;100.00;101400.13;20749615;28;20247;-64
2021/12/13 03:13:36;;;;;;;43.13;15.17;;;;;;;-1.02;100.00;101391.41;20814833;28;20239;-63
2021/12/13 03:23:54;;;;;;;32.20;12.40;;;;;;;-1.14;100.00;101415.84;20818835;28;20224;-64
2021/12/13 03:34:23;;;;;;;34.07;13.47;;;;;;;-1.25;100.00;101387.91;20743064;28;20232;-62
2021/12/13 03:44:32;;;;;;;45.07;14.67;;;;;;;-1.16;100.00;101394.03;20741856;28;20282;-65
2021/12/13 03:54:38;;;;;;;36.87;13.77;;;;;;;-1.18;100.00;101401.00;20741204;28;20312;-63
2021/12/13 04:04:45;;;;;;;37.60;13.80;;;;;;;-1.20;100.00;101407.97;20740918;28;20233;-63
2021/12/13 04:14:56;;;;;;;41.70;15.53;;;;;;;-1.22;100.00;101417.59;20819516;28;20741;-64
2021/12/13 04:25:10;;;;;;;36.63;14.63;;;;;;;-1.39;100.00;101411.44;20836362;28;20255;-62
2021/12/13 04:35:15;;;;;;;39.57;14.27;;;;;;;-1.34;100.00;101403.63;20738963;28;20240;-63
2021/12/13 04:45:23;;;;;;;31.30;12.13;;;;;;;-1.29;100.00;101407.97;20738866;28;20317;-63
2021/12/13 04:55:30;;;;;;;37.13;13.60;;;;;;;-1.27;100.00;101418.44;20737409;28;20220;-64
2021/12/13 05:05:35;;;;;;;47.27;13.97;;;;;;;-1.30;100.00;101411.47;20722756;28;20605;-63
2021/12/13 05:15:44;;;;;;;54.80;14.10;;;;;;;-1.39;100.00;101418.44;20750661;28;20304;-63
2021/12/13 05:25:54;;;;;;;51.27;15.53;;;;;;;-1.58;100.00;101430.63;20752539;28;20255;-63
2021/12/13 05:36:00;;;;;;;36.23;14.67;;;;;;;-1.69;100.00;101445.41;20749447;28;20705;-63
2021/12/13 05:46:09;;;;;;;40.83;12.73;;;;;;;-1.60;100.00;101448.94;20740612;28;20300;-64
2021/12/13 05:56:18;;;;;;;35.60;13.63;;;;;;;-1.55;100.00;101462.00;20726337;28;20225;-63
2021/12/13 06:06:27;;;;;;;38.93;12.60;;;;;;;-1.46;100.00;101469.91;20747556;28;20236;-64
2021/12/13 06:16:43;;;;;;;33.17;12.63;;;;;;;-1.47;100.00;101473.41;20749945;28;20307;-63
2021/12/13 06:26:46;;;;;;;33.90;11.37;;;;;;;-1.45;100.00;101479.50;20682032;28;20235;-65
2021/12/13 06:36:52;;;;;;;35.33;11.90;;;;;;;-1.43;100.00;101495.19;20666700;28;20730;-60
2021/12/13 06:47:09;;;;;;;41.60;13.40;;;;;;;-1.46;100.00;101504.81;20704720;28;20285;-60
2021/12/13 06:57:23;;;;;;;50.43;14.83;;;;;;;-1.34;100.00;101503.97;20727749;28;20302;-61
2021/12/13 07:07:37;;;;;;;42.57;13.50;;;;;;;-1.26;100.00;101510.09;20733174;28;20227;-60
2021/12/13 07:17:40;;;;;;;38.83;12.87;;;;;;;-1.10;100.00;101525.00;20736511;28;20312;-59
2021/12/13 07:27:48;;;;;;;47.53;13.97;;;;;;;-1.10;100.00;101540.72;20743142;28;20594;-60
2021/12/13 07:38:21;;;;;;;36.63;11.83;;;;;;;-1.21;100.00;101545.03;20743193;28;20312;-60
2021/12/13 07:48:32;;;;;;;41.93;15.37;;;;;;;-1.21;100.00;101552.88;20740843;28;20221;-59
2021/12/13 07:58:48;;;;;;;43.60;15.47;;;;;;;-0.99;100.00;101556.47;20741861;28;20701;-61
2021/12/13 08:09:00;;;;;;;38.33;14.77;;;;;;;-0.92;100.00;101559.97;20741275;28;20760;-60
2021/12/13 08:19:10;;;;;;;36.07;16.07;;;;;;;-0.91;100.00;101561.72;20739859;28;20251;-60
2021/12/13 08:29:23;;;;;;;55.17;21.47;;;;;;;-0.83;100.00;101559.97;20740152;28;20611;-64
2021/12/13 08:39:33;;;;;;;35.30;15.40;;;;;;;-0.70;100.00;101572.22;20739386;28;20225;-60
2021/12/13 08:49:49;;;;;;;40.77;16.07;;;;;;;-0.55;100.00;101577.50;20739484;28;20555;-60
2021/12/13 08:59:54;;;;;;;33.07;13.70;;;;;;;-0.39;100.00;101578.41;20737681;28;20260;-60
2021/12/13 09:09:58;;;;;;;49.30;18.00;;;;;;;-0.03;100.00;101577.53;20738674;28;20224;-58
2021/12/13 09:20:16;;;;;;;43.03;18.83;;;;;;;0.15;100.00;101582.72;20737971;28;20313;-58
2021/12/13 09:30:52;;;;;;;47.80;19.80;;;;;;;0.13;100.00;101566.09;20752414;28;20356;-58
2021/12/13 09:41:01;;;;;;;39.53;18.23;;;;;;;0.22;100.00;101568.75;20739634;28;20252;-59
2021/12/13 09:51:10;;;;;;;46.90;21.00;;;;;;;0.38;100.00;101568.69;20748151;28;20296;-61
2021/12/13 10:01:27;;;;;;;47.40;18.03;;;;;;;0.59;100.00;101574.78;20750162;28;20243;-61
2021/12/13 10:11:51;;;;;;;34.87;14.87;;;;;;;0.86;100.00;101586.03;20750435;28;20225;-62
2021/12/13 10:21:55;;;;;;;39.47;17.10;;;;;;;0.97;100.00;101564.06;20749535;28;20240;-61
2021/12/13 10:32:11;;;;;;;53.13;22.13;;;;;;;1.21;100.00;101575.34;20748093;28;20254;-63
2021/12/13 10:42:36;;;;;;;38.30;17.20;;;;;;;1.29;100.00;101574.41;20747728;28;20226;-63
2021/12/13 10:52:42;;;;;;;34.43;16.87;;;;;;;1.47;100.00;101568.16;20747709;28;20582;-63
2021/12/13 11:02:46;;;;;;;36.47;18.47;;;;;;;1.50;100.00;101568.13;20746779;28;20718;-62
2021/12/13 11:12:52;;;;;;;39.43;18.23;;;;;;;1.34;100.00;101561.22;20745803;28;20590;-62
2021/12/13 11:22:57;;;;;;;33.73;16.27;;;;;;;1.45;100.00;101551.50;20744763;28;20571;-61
2021/12/13 11:33:01;;;;;;;34.10;16.43;;;;;;;1.30;100.00;101556.88;20744365;28;20233;-59
2021/12/13 11:43:42;;;;;;;39.20;15.97;;;;;;;1.11;100.00;101549.97;20742916;28;20237;-60
2021/12/13 11:54:14;;;;;;;34.90;15.80;;;;;;;1.24;100.00;101554.28;20742596;28;20891;-60
2021/12/13 12:04:56;;;;;;;33.87;16.90;;;;;;;1.20;100.00;101563.09;20741817;28;20238;-60
2021/12/13 12:15:02;;;;;;;34.43;16.50;;;;;;;1.03;100.00;101571.06;20732919;28;20233;-61
2021/12/13 12:25:06;;;;;;;32.00;14.53;;;;;;;0.62;100.00;101568.59;20740572;28;20225;-59
2021/12/13 12:35:11;;;;;;;31.50;15.17;;;;;;;0.43;100.00;101554.69;20740300;28;20672;-59
2021/12/13 12:45:20;;;;;;;28.50;14.03;;;;;;;0.48;100.00;101555.56;20739273;28;20237;-62
2021/12/13 12:55:30;;;;;;;38.20;15.27;;;;;;;0.47;100.00;101573.94;20739377;28;20237;-60
2021/12/13 13:05:34;;;;;;;27.97;13.80;;;;;;;0.21;100.00;101574.00;20738889;28;20220;-60
2021/12/13 13:15:45;;;;;;;34.97;14.57;;;;;;;0.22;100.00;101579.25;20738495;28;20240;-60
2021/12/13 13:26:00;;;;;;;40.23;13.53;;;;;;;0.15;100.00;101592.34;20749794;28;20302;-59
2021/12/13 13:36:06;;;;;;;27.57;13.17;;;;;;;-0.08;100.00;101584.50;20752786;28;20694;-61
2021/12/13 13:46:09;;;;;;;38.60;13.93;;;;;;;-0.14;100.00;101600.28;20750665;28;20686;-59
2021/12/13 13:56:30;;;;;;;30.27;12.10;;;;;;;-0.42;100.00;101602.88;20751242;28;20228;-58
2021/12/13 14:06:37;;;;;;;44.43;14.67;;;;;;;-0.65;100.00;101588.84;20748886;28;20264;-61
2021/12/13 14:16:50;;;;;;;54.53;13.57;;;;;;;-0.81;100.00;101608.03;20749492;28;20213;-59
2021/12/13 14:26:54;;;;;;;34.53;12.47;;;;;;;-0.92;100.00;101601.88;20748635;28;20228;-59
2021/12/13 14:37:01;;;;;;;93.13;25.00;;;;;;;-1.03;100.00;101600.97;20746246;28;20225;-60
2021/12/13 14:47:22;;;;;;;48.97;15.47;;;;;;;-1.05;100.00;101600.09;20746942;28;20316;-59
2021/12/13 14:57:29;;;;;;;43.57;14.87;;;;;;;-1.34;100.00;101615.69;20745190;28;20217;-59
2021/12/13 15:07:35;;;;;;;29.13;12.07;;;;;;;-1.37;100.00;101634.00;20708604;28;20817;-60
2021/12/13 15:17:42;;;;;;;35.30;13.23;;;;;;;-1.29;100.00;101633.16;20672677;28;20356;-61
2021/12/13 15:27:46;;;;;;;37.03;12.83;;;;;;;-1.24;100.00;101644.53;20673421;28;20236;-62
2021/12/13 15:37:50;;;;;;;40.50;14.27;;;;;;;-1.32;100.00;101643.63;20671157;28;20241;-61
2021/12/13 15:58:28;;;;;;;37.83;13.60;;;;;;;-1.51;100.00;101660.09;20716850;28;20228;-62
2021/12/13 16:08:45;;;;;;;41.83;13.90;;;;;;;-1.62;100.00;101670.50;20738233;28;20236;-62
2021/12/13 16:18:52;;;;;;;64.83;17.10;;;;;;;-1.54;100.00;101667.91;20733667;28;20235;-59
2021/12/13 16:28:56;;;;;;;32.47;13.47;;;;;;;-1.46;100.00;101658.38;20736983;28;20662;-62
2021/12/13 16:39:06;;;;;;;39.53;15.67;;;;;;;-1.49;100.00;101651.38;20741691;28;20316;-66
2021/12/13 16:49:18;;;;;;;36.57;14.07;;;;;;;-1.59;100.00;101664.41;20725549;28;20717;-63
2021/12/13 16:59:22;;;;;;;30.10;12.60;;;;;;;-1.61;100.00;101672.25;20744767;28;20319;-63
2021/12/13 17:09:28;;;;;;;34.60;12.77;;;;;;;-1.69;100.00;101676.53;20747360;28;20227;-63
2021/12/13 17:19:58;;;;;;;36.67;13.13;;;;;;;-1.72;100.00;101673.91;20748440;28;20589;-66
2021/12/13 17:30:12;;;;;;;29.60;12.83;;;;;;;-1.81;100.00;101687.78;20740054;28;20232;-68
2021/12/13 17:40:38;;;;;;;32.47;14.80;;;;;;;-1.86;100.00;101684.28;20726920;28;20623;-63
2021/12/13 17:50:52;;;;;;;39.83;13.53;;;;;;;-1.76;100.00;101708.75;20744131;28;20221;-67
2021/12/13 18:01:06;;;;;;;36.87;14.47;;;;;;;-1.79;100.00;101694.75;20702857;28;20221;-65
2021/12/13 18:11:10;;;;;;;31.40;14.10;;;;;;;-1.84;100.00;101693.00;20743655;28;20644;-65
2021/12/13 18:21:14;;;;;;;47.37;16.60;;;;;;;-1.94;100.00;101699.03;20744859;28;20233;-59
2021/12/13 18:41:40;;;;;;;38.10;15.30;;;;;;;-2.13;100.00;101722.38;21081820;27;20676;-61
2021/12/13 18:51:53;;;;;;;30.77;13.93;;;;;;;-2.07;100.00;101712.84;21083811;28;20295;-64
2021/12/13 19:02:07;;;;;;;33.70;14.37;;;;;;;-2.01;100.00;101722.47;21090435;28;20240;-68
2021/12/13 19:12:20;;;;;;;35.10;14.43;;;;;;;-1.95;100.00;101731.28;21081441;28;20722;-66
2021/12/13 19:22:30;;;;;;;38.07;15.53;;;;;;;-1.93;100.00;101741.72;21081242;28;20807;-59
2021/12/13 19:52:36;;;;;;;49.53;17.33;;;;;;;-1.78;100.00;101735.78;20965999;27;20614;-59
2021/12/13 20:02:48;;;;;;;42.67;15.90;;;;;;;-1.74;100.00;101727.97;20893524;28;20229;-66
2021/12/13 20:13:03;;;;;;;46.90;16.60;;;;;;;-1.70;100.00;101718.41;20894834;27;20230;-61
2021/12/13 20:33:28;;;;;;;51.30;20.27;;;;;;;-1.62;100.00;101714.09;20937131;27;20675;-71
2021/12/13 21:13:25;;;;;;;35.90;14.53;;;;;;;-1.75;100.00;101700.03;20985547;27;20576;-60
2021/12/13 21:33:31;;;;;;;31.03;15.20;;;;;;;-1.73;100.00;101723.63;20841931;27;20572;-60
2021/12/13 21:53:35;;;;;;;27.77;14.43;;;;;;;-1.75;100.00;101714.88;20975253;27;20908;-71
2021/12/13 22:13:47;;;;;;;30.13;13.60;;;;;;;-1.74;100.00;101729.72;20980769;27;20960;-69
2021/12/13 22:24:11;;;;;;;36.23;15.83;;;;;;;-1.77;100.00;101716.59;20971596;28;20227;-69
2021/12/13 22:34:22;;;;;;;35.27;15.90;;;;;;;-1.86;100.00;101707.81;20973561;28;20223;-59
2021/12/13 22:54:25;;;;;;;29.93;13.13;;;;;;;-1.91;100.00;101709.50;21068291;27;20740;-59
2021/12/13 23:24:26;;;;;;;36.60;17.27;;;;;;;-2.13;100.00;101691.88;20984513;27;20577;-67
2021/12/13 23:54:58;;;;;;;40.67;15.27;;;;;;;-2.33;100.00;101690.81;20971908;28;20230;-64
